sensor_id;sensor_type;location;lat;lon;timestamp;temperature;humidity
22738;DHT22;11536;50.860;4.286;2023-12-20T00:01:32;7.80;99.90
22738;DHT22;11536;50.860;4.286;2023-12-20T00:03:57;7.80;99.90
22738;DHT22;11536;50.860;4.286;2023-12-20T00:06:23;7.70;99.90
22738;DHT22;11536;50.860;4.286;2023-12-20T00:08:49;7.70;99.90
22738;DHT22;11536;50.860;4.286;2023-12-20T00:11:15;7.60;99.90
22738;DHT22;11536;50.860;4.286;2023-12-20T00:13:40;7.60;99.90
22738;DHT22;11536;50.860;4.286;2023-12-20T00:16:06;7.60;99.90
22738;DHT22;11536;50.860;4.286;2023-12-20T00:18:32;7.60;99.90
22738;DHT22;11536;50.860;4.286;2023-12-20T00:20:57;7.60;99.90
22738;DHT22;11536;50.860;4.286;2023-12-20T00:23:23;7.50;99.90
22738;DHT22;11536;50.860;4.286;2023-12-20T00:25:49;7.60;99.90
22738;DHT22;11536;50.860;4.286;2023-12-20T00:28:15;7.50;99.90
22738;DHT22;11536;50.860;4.286;2023-12-20T00:30:40;7.50;99.90
22738;DHT22;11536;50.860;4.286;2023-12-20T00:33:06;7.50;99.90
22738;DHT22;11536;50.860;4.286;2023-12-20T00:35:31;7.50;99.90
22738;DHT22;11536;50.860;4.286;2023-12-20T00:37:58;7.50;99.90
22738;DHT22;11536;50.860;4.286;2023-12-20T00:40:24;7.50;99.90
22738;DHT22;11536;50.860;4.286;2023-12-20T00:42:49;7.50;99.90
22738;DHT22;11536;50.860;4.286;2023-12-20T00:45:15;7.50;99.90
22738;DHT22;11536;50.860;4.286;2023-12-20T00:47:41;7.50;99.90
22738;DHT22;11536;50.860;4.286;2023-12-20T00:50:07;7.40;99.90
22738;DHT22;11536;50.860;4.286;2023-12-20T00:52:32;7.40;99.90
22738;DHT22;11536;50.860;4.286;2023-12-20T00:54:58;7.40;99.90
22738;DHT22;11536;50.860;4.286;2023-12-20T00:57:24;7.40;99.90
22738;DHT22;11536;50.860;4.286;2023-12-20T00:59:49;7.40;99.90
22738;DHT22;11536;50.860;4.286;2023-12-20T01:02:15;7.30;99.90
22738;DHT22;11536;50.860;4.286;2023-12-20T01:04:40;7.30;99.90
22738;DHT22;11536;50.860;4.286;2023-12-20T01:07:06;7.30;99.90
22738;DHT22;11536;50.860;4.286;2023-12-20T01:09:31;7.30;99.90
22738;DHT22;11536;50.860;4.286;2023-12-20T01:11:57;7.30;99.90
22738;DHT22;11536;50.860;4.286;2023-12-20T01:14:23;7.20;99.90
22738;DHT22;11536;50.860;4.286;2023-12-20T01:16:48;7.20;99.90
22738;DHT22;11536;50.860;4.286;2023-12-20T01:19:14;7.20;99.90
22738;DHT22;11536;50.860;4.286;2023-12-20T01:21:40;7.20;99.90
22738;DHT22;11536;50.860;4.286;2023-12-20T01:24:06;7.20;99.90
22738;DHT22;11536;50.860;4.286;2023-12-20T01:26:31;7.20;99.90
22738;DHT22;11536;50.860;4.286;2023-12-20T01:28:57;7.20;99.90
22738;DHT22;11536;50.860;4.286;2023-12-20T01:31:23;7.20;99.90
22738;DHT22;11536;50.860;4.286;2023-12-20T01:33:48;7.20;99.90
22738;DHT22;11536;50.860;4.286;2023-12-20T01:36:14;7.20;99.90
22738;DHT22;11536;50.860;4.286;2023-12-20T01:38:40;7.20;99.90
22738;DHT22;11536;50.860;4.286;2023-12-20T01:41:05;7.20;99.90
22738;DHT22;11536;50.860;4.286;2023-12-20T01:43:31;7.20;99.90
22738;DHT22;11536;50.860;4.286;2023-12-20T01:45:57;7.10;99.90
22738;DHT22;11536;50.860;4.286;2023-12-20T01:48:24;7.10;99.90
22738;DHT22;11536;50.860;4.286;2023-12-20T01:50:51;7.10;99.90
22738;DHT22;11536;50.860;4.286;2023-12-20T01:53:19;7.10;99.90
22738;DHT22;11536;50.860;4.286;2023-12-20T01:55:45;7.10;99.90
22738;DHT22;11536;50.860;4.286;2023-12-20T01:58:12;7.10;99.90
22738;DHT22;11536;50.860;4.286;2023-12-20T02:00:39;7.10;99.90
22738;DHT22;11536;50.860;4.286;2023-12-20T02:03:04;7.00;99.90
22738;DHT22;11536;50.860;4.286;2023-12-20T02:05:31;7.20;99.90
22738;DHT22;11536;50.860;4.286;2023-12-20T02:07:57;7.10;99.90
22738;DHT22;11536;50.860;4.286;2023-12-20T02:10:24;7.10;99.90
22738;DHT22;11536;50.860;4.286;2023-12-20T02:12:50;7.10;99.90
22738;DHT22;11536;50.860;4.286;2023-12-20T02:15:16;7.10;99.90
22738;DHT22;11536;50.860;4.286;2023-12-20T02:17:42;7.10;99.90
22738;DHT22;11536;50.860;4.286;2023-12-20T02:20:08;7.00;99.90
22738;DHT22;11536;50.860;4.286;2023-12-20T02:22:34;7.00;99.90
22738;DHT22;11536;50.860;4.286;2023-12-20T02:24:59;7.00;99.90
22738;DHT22;11536;50.860;4.286;2023-12-20T02:27:25;7.00;99.90
22738;DHT22;11536;50.860;4.286;2023-12-20T02:29:51;7.00;99.90
22738;DHT22;11536;50.860;4.286;2023-12-20T02:32:17;7.00;99.90
22738;DHT22;11536;50.860;4.286;2023-12-20T02:34:44;7.00;99.90
22738;DHT22;11536;50.860;4.286;2023-12-20T02:37:09;7.00;99.90
22738;DHT22;11536;50.860;4.286;2023-12-20T02:39:35;7.00;99.90
22738;DHT22;11536;50.860;4.286;2023-12-20T02:42:01;7.00;99.90
22738;DHT22;11536;50.860;4.286;2023-12-20T02:44:26;7.00;99.90
22738;DHT22;11536;50.860;4.286;2023-12-20T02:46:52;7.00;99.90
22738;DHT22;11536;50.860;4.286;2023-12-20T02:49:17;7.00;99.90
22738;DHT22;11536;50.860;4.286;2023-12-20T02:51:43;7.00;99.90
22738;DHT22;11536;50.860;4.286;2023-12-20T02:54:09;7.00;99.90
22738;DHT22;11536;50.860;4.286;2023-12-20T02:56:35;7.00;99.90
22738;DHT22;11536;50.860;4.286;2023-12-20T02:59:01;7.00;99.90
22738;DHT22;11536;50.860;4.286;2023-12-20T03:01:27;7.00;99.90
22738;DHT22;11536;50.860;4.286;2023-12-20T03:03:53;7.10;99.90
22738;DHT22;11536;50.860;4.286;2023-12-20T03:06:19;7.10;99.90
22738;DHT22;11536;50.860;4.286;2023-12-20T03:08:45;7.10;99.90
22738;DHT22;11536;50.860;4.286;2023-12-20T03:11:11;7.10;99.90
22738;DHT22;11536;50.860;4.286;2023-12-20T03:13:36;7.10;99.90
22738;DHT22;11536;50.860;4.286;2023-12-20T03:16:08;7.10;99.90
22738;DHT22;11536;50.860;4.286;2023-12-20T03:18:34;7.20;99.90
22738;DHT22;11536;50.860;4.286;2023-12-20T03:21:00;7.20;99.90
22738;DHT22;11536;50.860;4.286;2023-12-20T03:23:25;7.20;99.90
22738;DHT22;11536;50.860;4.286;2023-12-20T03:25:52;7.20;99.90
22738;DHT22;11536;50.860;4.286;2023-12-20T03:28:18;7.20;99.90
22738;DHT22;11536;50.860;4.286;2023-12-20T03:30:44;7.30;99.90
22738;DHT22;11536;50.860;4.286;2023-12-20T03:33:10;7.30;99.90
22738;DHT22;11536;50.860;4.286;2023-12-20T03:35:35;7.30;99.90
22738;DHT22;11536;50.860;4.286;2023-12-20T03:38:01;7.30;99.90
22738;DHT22;11536;50.860;4.286;2023-12-20T03:40:27;7.30;99.90
22738;DHT22;11536;50.860;4.286;2023-12-20T03:42:53;7.30;99.90
22738;DHT22;11536;50.860;4.286;2023-12-20T03:45:18;7.40;99.90
22738;DHT22;11536;50.860;4.286;2023-12-20T03:47:44;7.40;99.90
22738;DHT22;11536;50.860;4.286;2023-12-20T03:50:09;7.40;99.90
22738;DHT22;11536;50.860;4.286;2023-12-20T03:52:35;7.30;99.90
22738;DHT22;11536;50.860;4.286;2023-12-20T03:55:00;7.40;99.90
22738;DHT22;11536;50.860;4.286;2023-12-20T03:57:26;7.40;99.90
22738;DHT22;11536;50.860;4.286;2023-12-20T03:59:52;7.40;99.90
22738;DHT22;11536;50.860;4.286;2023-12-20T04:02:17;7.30;99.90
22738;DHT22;11536;50.860;4.286;2023-12-20T04:04:45;7.30;99.90
22738;DHT22;11536;50.860;4.286;2023-12-20T04:07:11;7.30;99.90
22738;DHT22;11536;50.860;4.286;2023-12-20T04:09:37;7.30;99.90
22738;DHT22;11536;50.860;4.286;2023-12-20T04:12:03;7.30;99.90
22738;DHT22;11536;50.860;4.286;2023-12-20T04:14:32;7.30;99.90
22738;DHT22;11536;50.860;4.286;2023-12-20T04:16:57;7.30;99.90
22738;DHT22;11536;50.860;4.286;2023-12-20T04:19:23;7.30;99.90
22738;DHT22;11536;50.860;4.286;2023-12-20T04:21:49;7.30;99.90
22738;DHT22;11536;50.860;4.286;2023-12-20T04:24:14;7.30;99.90
22738;DHT22;11536;50.860;4.286;2023-12-20T04:26:40;7.30;99.90
22738;DHT22;11536;50.860;4.286;2023-12-20T04:29:06;7.30;99.90
22738;DHT22;11536;50.860;4.286;2023-12-20T04:31:31;7.30;99.90
22738;DHT22;11536;50.860;4.286;2023-12-20T04:33:57;7.30;99.90
22738;DHT22;11536;50.860;4.286;2023-12-20T04:36:22;7.30;99.90
22738;DHT22;11536;50.860;4.286;2023-12-20T04:38:48;7.30;99.90
22738;DHT22;11536;50.860;4.286;2023-12-20T04:41:14;7.20;99.90
22738;DHT22;11536;50.860;4.286;2023-12-20T04:43:44;7.30;99.90
22738;DHT22;11536;50.860;4.286;2023-12-20T04:46:09;7.20;99.90
22738;DHT22;11536;50.860;4.286;2023-12-20T04:48:35;7.20;99.90
22738;DHT22;11536;50.860;4.286;2023-12-20T04:51:01;7.20;99.90
22738;DHT22;11536;50.860;4.286;2023-12-20T04:53:26;7.20;99.90
22738;DHT22;11536;50.860;4.286;2023-12-20T04:55:53;7.30;99.90
22738;DHT22;11536;50.860;4.286;2023-12-20T04:58:19;7.30;99.90
22738;DHT22;11536;50.860;4.286;2023-12-20T05:00:44;7.30;99.90
22738;DHT22;11536;50.860;4.286;2023-12-20T05:03:10;7.30;99.90
22738;DHT22;11536;50.860;4.286;2023-12-20T05:05:36;7.30;99.90
22738;DHT22;11536;50.860;4.286;2023-12-20T05:08:02;7.30;99.90
22738;DHT22;11536;50.860;4.286;2023-12-20T05:10:27;7.30;99.90
22738;DHT22;11536;50.860;4.286;2023-12-20T05:12:53;7.30;99.90
22738;DHT22;11536;50.860;4.286;2023-12-20T05:15:19;7.30;99.90
22738;DHT22;11536;50.860;4.286;2023-12-20T05:17:44;7.30;99.90
22738;DHT22;11536;50.860;4.286;2023-12-20T05:20:10;7.20;99.90
22738;DHT22;11536;50.860;4.286;2023-12-20T05:22:36;7.20;99.90
22738;DHT22;11536;50.860;4.286;2023-12-20T05:25:01;7.20;99.90
22738;DHT22;11536;50.860;4.286;2023-12-20T05:27:27;7.20;99.90
22738;DHT22;11536;50.860;4.286;2023-12-20T05:29:53;7.10;99.90
22738;DHT22;11536;50.860;4.286;2023-12-20T05:32:23;7.10;99.90
22738;DHT22;11536;50.860;4.286;2023-12-20T05:34:48;7.10;99.90
22738;DHT22;11536;50.860;4.286;2023-12-20T05:37:14;7.10;99.90
22738;DHT22;11536;50.860;4.286;2023-12-20T05:39:39;7.10;99.90
22738;DHT22;11536;50.860;4.286;2023-12-20T05:42:05;7.00;99.90
22738;DHT22;11536;50.860;4.286;2023-12-20T05:44:31;7.00;99.90
22738;DHT22;11536;50.860;4.286;2023-12-20T05:46:57;7.00;99.90
22738;DHT22;11536;50.860;4.286;2023-12-20T05:49:22;7.00;99.90
22738;DHT22;11536;50.860;4.286;2023-12-20T05:51:48;6.90;99.90
22738;DHT22;11536;50.860;4.286;2023-12-20T05:54:15;6.90;99.90
22738;DHT22;11536;50.860;4.286;2023-12-20T05:56:41;6.90;99.90
22738;DHT22;11536;50.860;4.286;2023-12-20T05:59:06;6.90;99.90
22738;DHT22;11536;50.860;4.286;2023-12-20T06:01:32;6.90;99.90
22738;DHT22;11536;50.860;4.286;2023-12-20T06:03:57;6.90;99.90
22738;DHT22;11536;50.860;4.286;2023-12-20T06:06:23;6.80;99.90
22738;DHT22;11536;50.860;4.286;2023-12-20T06:08:49;6.80;99.90
22738;DHT22;11536;50.860;4.286;2023-12-20T06:11:15;6.80;99.90
22738;DHT22;11536;50.860;4.286;2023-12-20T06:13:40;6.80;99.90
22738;DHT22;11536;50.860;4.286;2023-12-20T06:16:06;6.80;99.90
22738;DHT22;11536;50.860;4.286;2023-12-20T06:18:35;6.90;99.90
22738;DHT22;11536;50.860;4.286;2023-12-20T06:21:02;6.90;99.90
22738;DHT22;11536;50.860;4.286;2023-12-20T06:23:28;6.90;99.90
22738;DHT22;11536;50.860;4.286;2023-12-20T06:25:53;6.90;99.90
22738;DHT22;11536;50.860;4.286;2023-12-20T06:28:19;6.90;99.90
22738;DHT22;11536;50.860;4.286;2023-12-20T06:30:45;6.90;99.90
22738;DHT22;11536;50.860;4.286;2023-12-20T06:33:12;6.90;99.90
22738;DHT22;11536;50.860;4.286;2023-12-20T06:35:38;6.90;99.90
22738;DHT22;11536;50.860;4.286;2023-12-20T06:38:04;7.00;99.90
22738;DHT22;11536;50.860;4.286;2023-12-20T06:40:30;7.00;99.90
22738;DHT22;11536;50.860;4.286;2023-12-20T06:42:55;6.90;99.90
22738;DHT22;11536;50.860;4.286;2023-12-20T06:45:21;6.90;99.90
22738;DHT22;11536;50.860;4.286;2023-12-20T06:47:47;6.90;99.90
22738;DHT22;11536;50.860;4.286;2023-12-20T06:50:12;6.90;99.90
22738;DHT22;11536;50.860;4.286;2023-12-20T06:52:38;6.90;99.90
22738;DHT22;11536;50.860;4.286;2023-12-20T06:55:04;6.80;99.90
22738;DHT22;11536;50.860;4.286;2023-12-20T06:57:30;6.80;99.90
22738;DHT22;11536;50.860;4.286;2023-12-20T06:59:56;6.80;99.90
22738;DHT22;11536;50.860;4.286;2023-12-20T07:02:21;6.80;99.90
22738;DHT22;11536;50.860;4.286;2023-12-20T07:04:47;6.80;99.90
22738;DHT22;11536;50.860;4.286;2023-12-20T07:07:13;6.80;99.90
22738;DHT22;11536;50.860;4.286;2023-12-20T07:09:39;6.70;99.90
22738;DHT22;11536;50.860;4.286;2023-12-20T07:12:06;6.70;99.90
22738;DHT22;11536;50.860;4.286;2023-12-20T07:14:32;6.70;99.90
22738;DHT22;11536;50.860;4.286;2023-12-20T07:16:57;6.70;99.90
22738;DHT22;11536;50.860;4.286;2023-12-20T07:19:23;6.70;99.90
22738;DHT22;11536;50.860;4.286;2023-12-20T07:21:49;6.60;99.90
22738;DHT22;11536;50.860;4.286;2023-12-20T07:24:14;6.60;99.90
22738;DHT22;11536;50.860;4.286;2023-12-20T07:26:40;6.50;99.90
22738;DHT22;11536;50.860;4.286;2023-12-20T07:29:06;6.50;99.90
22738;DHT22;11536;50.860;4.286;2023-12-20T07:31:32;6.50;99.90
22738;DHT22;11536;50.860;4.286;2023-12-20T07:33:58;6.50;99.90
22738;DHT22;11536;50.860;4.286;2023-12-20T07:36:24;6.60;99.90
22738;DHT22;11536;50.860;4.286;2023-12-20T07:38:49;6.50;99.90
22738;DHT22;11536;50.860;4.286;2023-12-20T07:41:15;6.50;99.90
22738;DHT22;11536;50.860;4.286;2023-12-20T07:43:46;6.50;99.90
22738;DHT22;11536;50.860;4.286;2023-12-20T07:46:12;6.50;99.90
22738;DHT22;11536;50.860;4.286;2023-12-20T07:48:38;6.50;99.90
22738;DHT22;11536;50.860;4.286;2023-12-20T07:51:04;6.50;99.90
22738;DHT22;11536;50.860;4.286;2023-12-20T07:53:32;6.50;99.90
22738;DHT22;11536;50.860;4.286;2023-12-20T07:55:58;6.40;99.90
22738;DHT22;11536;50.860;4.286;2023-12-20T07:58:24;6.50;99.90
22738;DHT22;11536;50.860;4.286;2023-12-20T08:00:49;6.40;99.90
22738;DHT22;11536;50.860;4.286;2023-12-20T08:03:15;6.40;99.90
22738;DHT22;11536;50.860;4.286;2023-12-20T08:05:41;6.40;99.90
22738;DHT22;11536;50.860;4.286;2023-12-20T08:08:07;6.40;99.90
22738;DHT22;11536;50.860;4.286;2023-12-20T08:10:33;6.40;99.90
22738;DHT22;11536;50.860;4.286;2023-12-20T08:12:58;6.40;99.90
22738;DHT22;11536;50.860;4.286;2023-12-20T08:15:24;6.40;99.90
22738;DHT22;11536;50.860;4.286;2023-12-20T08:17:50;6.40;99.90
22738;DHT22;11536;50.860;4.286;2023-12-20T08:20:18;6.40;99.90
22738;DHT22;11536;50.860;4.286;2023-12-20T08:22:44;6.40;99.90
22738;DHT22;11536;50.860;4.286;2023-12-20T08:25:10;6.40;99.90
22738;DHT22;11536;50.860;4.286;2023-12-20T08:27:42;6.40;99.90
22738;DHT22;11536;50.860;4.286;2023-12-20T08:30:10;6.40;99.90
22738;DHT22;11536;50.860;4.286;2023-12-20T08:32:36;6.40;99.90
22738;DHT22;11536;50.860;4.286;2023-12-20T08:35:02;6.50;99.90
22738;DHT22;11536;50.860;4.286;2023-12-20T08:37:28;6.40;99.90
22738;DHT22;11536;50.860;4.286;2023-12-20T08:39:56;6.50;99.90
22738;DHT22;11536;50.860;4.286;2023-12-20T08:42:21;6.40;99.90
22738;DHT22;11536;50.860;4.286;2023-12-20T08:44:47;6.50;99.90
22738;DHT22;11536;50.860;4.286;2023-12-20T08:47:12;6.50;99.90
22738;DHT22;11536;50.860;4.286;2023-12-20T08:49:41;6.50;99.90
22738;DHT22;11536;50.860;4.286;2023-12-20T08:52:07;6.50;99.90
22738;DHT22;11536;50.860;4.286;2023-12-20T08:54:32;6.50;99.90
22738;DHT22;11536;50.860;4.286;2023-12-20T08:56:58;6.50;99.90
22738;DHT22;11536;50.860;4.286;2023-12-20T08:59:24;6.50;99.90
22738;DHT22;11536;50.860;4.286;2023-12-20T09:01:49;6.60;99.90
22738;DHT22;11536;50.860;4.286;2023-12-20T09:04:19;6.60;99.90
22738;DHT22;11536;50.860;4.286;2023-12-20T09:06:45;6.50;99.90
22738;DHT22;11536;50.860;4.286;2023-12-20T09:09:11;6.60;99.90
22738;DHT22;11536;50.860;4.286;2023-12-20T09:11:39;6.60;99.90
22738;DHT22;11536;50.860;4.286;2023-12-20T09:14:05;6.70;99.90
22738;DHT22;11536;50.860;4.286;2023-12-20T09:16:34;6.70;99.90
22738;DHT22;11536;50.860;4.286;2023-12-20T09:18:59;6.70;99.90
22738;DHT22;11536;50.860;4.286;2023-12-20T09:21:25;6.70;99.90
22738;DHT22;11536;50.860;4.286;2023-12-20T09:23:51;6.70;99.90
22738;DHT22;11536;50.860;4.286;2023-12-20T09:26:17;6.70;99.90
22738;DHT22;11536;50.860;4.286;2023-12-20T09:28:42;6.80;99.90
22738;DHT22;11536;50.860;4.286;2023-12-20T09:31:08;6.80;99.90
22738;DHT22;11536;50.860;4.286;2023-12-20T09:33:34;6.80;99.90
22738;DHT22;11536;50.860;4.286;2023-12-20T09:36:00;6.80;99.90
22738;DHT22;11536;50.860;4.286;2023-12-20T09:38:26;6.90;99.90
22738;DHT22;11536;50.860;4.286;2023-12-20T09:40:52;7.00;99.90
22738;DHT22;11536;50.860;4.286;2023-12-20T09:43:23;7.00;99.90
22738;DHT22;11536;50.860;4.286;2023-12-20T09:45:53;7.00;99.90
22738;DHT22;11536;50.860;4.286;2023-12-20T09:48:19;7.00;99.90
22738;DHT22;11536;50.860;4.286;2023-12-20T09:50:45;7.00;99.90
22738;DHT22;11536;50.860;4.286;2023-12-20T09:53:15;7.10;99.90
22738;DHT22;11536;50.860;4.286;2023-12-20T09:55:41;7.20;99.90
22738;DHT22;11536;50.860;4.286;2023-12-20T09:58:07;7.30;99.90
22738;DHT22;11536;50.860;4.286;2023-12-20T10:00:34;7.30;99.90
22738;DHT22;11536;50.860;4.286;2023-12-20T10:03:00;7.30;99.90
22738;DHT22;11536;50.860;4.286;2023-12-20T10:05:28;7.40;99.90
22738;DHT22;11536;50.860;4.286;2023-12-20T10:07:56;7.40;99.90
22738;DHT22;11536;50.860;4.286;2023-12-20T10:10:22;7.40;99.90
22738;DHT22;11536;50.860;4.286;2023-12-20T10:13:08;7.40;99.90
22738;DHT22;11536;50.860;4.286;2023-12-20T10:15:34;7.50;99.90
22738;DHT22;11536;50.860;4.286;2023-12-20T10:18:01;7.50;99.90
22738;DHT22;11536;50.860;4.286;2023-12-20T10:20:27;7.50;99.90
22738;DHT22;11536;50.860;4.286;2023-12-20T10:22:57;7.60;99.90
22738;DHT22;11536;50.860;4.286;2023-12-20T10:25:23;7.60;99.90
22738;DHT22;11536;50.860;4.286;2023-12-20T10:27:50;7.70;99.90
22738;DHT22;11536;50.860;4.286;2023-12-20T10:30:33;7.70;99.90
22738;DHT22;11536;50.860;4.286;2023-12-20T10:32:59;7.80;99.90
22738;DHT22;11536;50.860;4.286;2023-12-20T10:35:25;7.80;99.90
22738;DHT22;11536;50.860;4.286;2023-12-20T10:37:55;7.90;99.90
22738;DHT22;11536;50.860;4.286;2023-12-20T10:40:22;7.90;99.90
22738;DHT22;11536;50.860;4.286;2023-12-20T10:42:48;7.90;99.90
22738;DHT22;11536;50.860;4.286;2023-12-20T10:45:16;8.00;99.90
22738;DHT22;11536;50.860;4.286;2023-12-20T10:47:44;8.00;99.90
22738;DHT22;11536;50.860;4.286;2023-12-20T10:50:11;8.00;99.90
22738;DHT22;11536;50.860;4.286;2023-12-20T10:52:38;8.10;99.90
22738;DHT22;11536;50.860;4.286;2023-12-20T10:55:05;8.10;99.90
22738;DHT22;11536;50.860;4.286;2023-12-20T10:57:30;8.10;99.90
22738;DHT22;11536;50.860;4.286;2023-12-20T11:00:00;8.20;99.90
22738;DHT22;11536;50.860;4.286;2023-12-20T11:02:28;8.20;99.90
22738;DHT22;11536;50.860;4.286;2023-12-20T11:05:19;8.30;99.90
22738;DHT22;11536;50.860;4.286;2023-12-20T11:07:52;8.30;99.90
22738;DHT22;11536;50.860;4.286;2023-12-20T11:10:25;8.30;99.90
22738;DHT22;11536;50.860;4.286;2023-12-20T11:12:59;8.30;99.90
22738;DHT22;11536;50.860;4.286;2023-12-20T11:15:28;8.40;99.90
22738;DHT22;11536;50.860;4.286;2023-12-20T11:17:57;8.40;99.90
22738;DHT22;11536;50.860;4.286;2023-12-20T11:20:24;8.40;99.90
22738;DHT22;11536;50.860;4.286;2023-12-20T11:23:00;8.40;99.90
22738;DHT22;11536;50.860;4.286;2023-12-20T11:25:26;8.40;99.90
22738;DHT22;11536;50.860;4.286;2023-12-20T11:28:22;8.50;99.90
22738;DHT22;11536;50.860;4.286;2023-12-20T11:30:51;8.50;99.90
22738;DHT22;11536;50.860;4.286;2023-12-20T11:33:25;8.50;99.90
22738;DHT22;11536;50.860;4.286;2023-12-20T11:35:51;8.50;99.90
22738;DHT22;11536;50.860;4.286;2023-12-20T11:38:19;8.50;99.90
22738;DHT22;11536;50.860;4.286;2023-12-20T11:40:48;8.50;99.90
22738;DHT22;11536;50.860;4.286;2023-12-20T11:43:34;8.60;99.90
22738;DHT22;11536;50.860;4.286;2023-12-20T11:46:08;8.60;99.90
22738;DHT22;11536;50.860;4.286;2023-12-20T11:48:39;8.60;99.90
22738;DHT22;11536;50.860;4.286;2023-12-20T11:51:13;8.60;99.90
22738;DHT22;11536;50.860;4.286;2023-12-20T11:54:04;8.70;99.90
22738;DHT22;11536;50.860;4.286;2023-12-20T11:56:30;8.70;99.90
22738;DHT22;11536;50.860;4.286;2023-12-20T11:58:59;8.70;99.90
22738;DHT22;11536;50.860;4.286;2023-12-20T12:01:25;8.70;99.90
22738;DHT22;11536;50.860;4.286;2023-12-20T12:04:05;8.70;99.90
22738;DHT22;11536;50.860;4.286;2023-12-20T12:06:31;8.70;99.90
22738;DHT22;11536;50.860;4.286;2023-12-20T12:08:56;8.70;99.90
22738;DHT22;11536;50.860;4.286;2023-12-20T12:11:23;8.80;99.90
22738;DHT22;11536;50.860;4.286;2023-12-20T12:13:49;8.80;99.90
22738;DHT22;11536;50.860;4.286;2023-12-20T12:16:18;8.80;99.90
22738;DHT22;11536;50.860;4.286;2023-12-20T12:18:45;8.80;99.90
22738;DHT22;11536;50.860;4.286;2023-12-20T12:21:18;8.90;99.90
22738;DHT22;11536;50.860;4.286;2023-12-20T12:23:44;8.90;99.90
22738;DHT22;11536;50.860;4.286;2023-12-20T12:26:09;9.00;99.90
22738;DHT22;11536;50.860;4.286;2023-12-20T12:28:35;9.00;99.90
22738;DHT22;11536;50.860;4.286;2023-12-20T12:31:01;9.00;99.90
22738;DHT22;11536;50.860;4.286;2023-12-20T12:33:27;9.00;99.90
22738;DHT22;11536;50.860;4.286;2023-12-20T12:35:53;9.10;99.90
22738;DHT22;11536;50.860;4.286;2023-12-20T12:38:22;9.00;99.90
22738;DHT22;11536;50.860;4.286;2023-12-20T12:40:47;9.10;99.90
22738;DHT22;11536;50.860;4.286;2023-12-20T12:43:13;9.00;99.90
22738;DHT22;11536;50.860;4.286;2023-12-20T12:45:39;9.10;99.90
22738;DHT22;11536;50.860;4.286;2023-12-20T12:48:05;9.10;99.90
22738;DHT22;11536;50.860;4.286;2023-12-20T12:50:31;9.10;99.90
22738;DHT22;11536;50.860;4.286;2023-12-20T12:52:57;9.10;99.90
22738;DHT22;11536;50.860;4.286;2023-12-20T12:55:22;9.10;99.90
22738;DHT22;11536;50.860;4.286;2023-12-20T12:57:48;9.10;99.90
22738;DHT22;11536;50.860;4.286;2023-12-20T13:00:14;9.20;99.90
22738;DHT22;11536;50.860;4.286;2023-12-20T13:02:39;9.20;99.90
22738;DHT22;11536;50.860;4.286;2023-12-20T13:05:08;9.20;99.90
22738;DHT22;11536;50.860;4.286;2023-12-20T13:07:34;9.20;99.90
22738;DHT22;11536;50.860;4.286;2023-12-20T13:10:00;9.20;99.90
22738;DHT22;11536;50.860;4.286;2023-12-20T13:12:26;9.20;99.90
22738;DHT22;11536;50.860;4.286;2023-12-20T13:14:52;9.20;99.90
22738;DHT22;11536;50.860;4.286;2023-12-20T13:17:19;9.30;99.90
22738;DHT22;11536;50.860;4.286;2023-12-20T13:19:45;9.30;99.90
22738;DHT22;11536;50.860;4.286;2023-12-20T13:22:10;9.30;99.90
22738;DHT22;11536;50.860;4.286;2023-12-20T13:24:36;9.30;99.90
22738;DHT22;11536;50.860;4.286;2023-12-20T13:27:02;9.30;99.90
22738;DHT22;11536;50.860;4.286;2023-12-20T13:29:27;9.30;99.90
22738;DHT22;11536;50.860;4.286;2023-12-20T13:31:53;9.40;99.90
22738;DHT22;11536;50.860;4.286;2023-12-20T13:34:19;9.40;99.90
22738;DHT22;11536;50.860;4.286;2023-12-20T13:36:45;9.40;99.90
22738;DHT22;11536;50.860;4.286;2023-12-20T13:39:13;9.40;99.90
22738;DHT22;11536;50.860;4.286;2023-12-20T13:41:39;9.50;99.90
22738;DHT22;11536;50.860;4.286;2023-12-20T13:44:05;9.50;99.90
22738;DHT22;11536;50.860;4.286;2023-12-20T13:46:31;9.50;99.90
22738;DHT22;11536;50.860;4.286;2023-12-20T13:48:56;9.50;99.90
22738;DHT22;11536;50.860;4.286;2023-12-20T13:51:22;9.50;99.90
22738;DHT22;11536;50.860;4.286;2023-12-20T13:53:48;9.50;99.90
22738;DHT22;11536;50.860;4.286;2023-12-20T13:56:15;9.50;99.90
22738;DHT22;11536;50.860;4.286;2023-12-20T13:58:41;9.60;99.90
22738;DHT22;11536;50.860;4.286;2023-12-20T14:01:09;9.50;99.90
22738;DHT22;11536;50.860;4.286;2023-12-20T14:03:35;9.60;99.90
22738;DHT22;11536;50.860;4.286;2023-12-20T14:06:01;9.60;99.90
22738;DHT22;11536;50.860;4.286;2023-12-20T14:08:27;9.60;99.90
22738;DHT22;11536;50.860;4.286;2023-12-20T14:10:53;9.70;99.90
22738;DHT22;11536;50.860;4.286;2023-12-20T14:13:19;9.70;99.90
22738;DHT22;11536;50.860;4.286;2023-12-20T14:15:44;9.70;99.90
22738;DHT22;11536;50.860;4.286;2023-12-20T14:18:10;9.70;99.90
22738;DHT22;11536;50.860;4.286;2023-12-20T14:20:38;9.70;99.90
22738;DHT22;11536;50.860;4.286;2023-12-20T14:23:05;9.70;99.90
22738;DHT22;11536;50.860;4.286;2023-12-20T14:25:30;9.70;99.90
22738;DHT22;11536;50.860;4.286;2023-12-20T14:27:59;9.70;99.90
22738;DHT22;11536;50.860;4.286;2023-12-20T14:30:25;9.70;99.90
22738;DHT22;11536;50.860;4.286;2023-12-20T14:32:51;9.80;99.90
22738;DHT22;11536;50.860;4.286;2023-12-20T14:35:17;9.80;99.90
22738;DHT22;11536;50.860;4.286;2023-12-20T14:37:42;9.70;99.90
22738;DHT22;11536;50.860;4.286;2023-12-20T14:40:09;9.80;99.90
22738;DHT22;11536;50.860;4.286;2023-12-20T14:42:41;9.80;99.90
22738;DHT22;11536;50.860;4.286;2023-12-20T14:45:07;9.80;99.90
22738;DHT22;11536;50.860;4.286;2023-12-20T14:47:33;9.80;99.90
22738;DHT22;11536;50.860;4.286;2023-12-20T14:49:59;9.80;99.90
22738;DHT22;11536;50.860;4.286;2023-12-20T14:52:24;9.80;99.90
22738;DHT22;11536;50.860;4.286;2023-12-20T14:54:50;9.80;99.90
22738;DHT22;11536;50.860;4.286;2023-12-20T14:57:15;9.80;99.90
22738;DHT22;11536;50.860;4.286;2023-12-20T14:59:41;9.80;99.90
22738;DHT22;11536;50.860;4.286;2023-12-20T15:02:08;9.80;99.90
22738;DHT22;11536;50.860;4.286;2023-12-20T15:04:34;9.80;99.90
22738;DHT22;11536;50.860;4.286;2023-12-20T15:07:00;9.80;99.90
22738;DHT22;11536;50.860;4.286;2023-12-20T15:09:26;9.80;99.90
22738;DHT22;11536;50.860;4.286;2023-12-20T15:11:53;9.80;99.90
22738;DHT22;11536;50.860;4.286;2023-12-20T15:14:18;9.80;99.90
22738;DHT22;11536;50.860;4.286;2023-12-20T15:16:47;9.80;99.90
22738;DHT22;11536;50.860;4.286;2023-12-20T15:19:13;9.90;99.90
22738;DHT22;11536;50.860;4.286;2023-12-20T15:21:39;9.90;99.90
22738;DHT22;11536;50.860;4.286;2023-12-20T15:24:11;9.90;99.90
22738;DHT22;11536;50.860;4.286;2023-12-20T15:26:45;9.80;99.90
22738;DHT22;11536;50.860;4.286;2023-12-20T15:29:12;9.90;99.90
22738;DHT22;11536;50.860;4.286;2023-12-20T15:31:46;9.80;99.90
22738;DHT22;11536;50.860;4.286;2023-12-20T15:34:12;9.90;99.90
22738;DHT22;11536;50.860;4.286;2023-12-20T15:36:38;9.90;99.90
22738;DHT22;11536;50.860;4.286;2023-12-20T15:39:05;9.90;99.90
22738;DHT22;11536;50.860;4.286;2023-12-20T15:41:31;9.90;99.90